createdAt,value
2019-03-26T00:00:56.511Z,100796.24
2019-03-26T00:03:23.746Z,100794.14
2019-03-26T00:05:51.049Z,100800.31
2019-03-26T00:08:18.296Z,100788.23
2019-03-26T00:10:45.505Z,100798.84
2019-03-26T00:13:12.824Z,100804.76
2019-03-26T00:15:40.064Z,100806.05
2019-03-26T00:18:07.374Z,100807.08
2019-03-26T00:20:34.702Z,100810.57
2019-03-26T00:23:02.040Z,100811.45
2019-03-26T00:25:29.414Z,100807.05
2019-03-26T00:27:56.721Z,100817.92
2019-03-26T00:30:24.095Z,100811.93
2019-03-26T00:32:51.421Z,100812.36
2019-03-26T00:35:18.751Z,100813.98
2019-03-26T00:37:46.104Z,100813.25
2019-03-26T00:40:13.535Z,100814.02
2019-03-26T00:42:41.710Z,100810.72
2019-03-26T00:45:09.046Z,100820.02
2019-03-26T00:47:36.250Z,100824.20
2019-03-26T00:50:04.321Z,100825.56
2019-03-26T00:52:31.626Z,100824.72
2019-03-26T00:54:58.969Z,100832.11
2019-03-26T00:57:26.091Z,100837.53
2019-03-26T00:59:53.504Z,100831.52
2019-03-26T01:02:20.926Z,100832.06
2019-03-26T01:04:48.202Z,100833.05
2019-03-26T01:07:15.426Z,100839.80
2019-03-26T01:09:42.754Z,100842.56
2019-03-26T01:12:09.961Z,100837.79
2019-03-26T01:14:37.291Z,100822.92
2019-03-26T01:17:04.520Z,100840.50
2019-03-26T01:19:31.848Z,100839.09
2019-03-26T01:21:59.163Z,100839.88
2019-03-26T01:24:26.513Z,100846.02
2019-03-26T01:26:53.846Z,100841.65
2019-03-26T01:29:21.179Z,100848.36
2019-03-26T01:31:48.412Z,100845.72
2019-03-26T01:34:15.755Z,100850.16
2019-03-26T01:36:43.053Z,100844.17
2019-03-26T01:39:10.400Z,100853.70
2019-03-26T01:41:37.710Z,100838.97
2019-03-26T01:44:05.036Z,100859.72
2019-03-26T01:46:32.340Z,100853.75
2019-03-26T01:48:59.656Z,100855.28
2019-03-26T01:51:26.953Z,100853.19
2019-03-26T01:53:54.203Z,100852.72
2019-03-26T01:56:21.438Z,100845.58
2019-03-26T01:58:48.751Z,100845.58
2019-03-26T02:01:16.106Z,100857.11
2019-03-26T02:03:43.332Z,100850.80
2019-03-26T02:06:10.721Z,100852.99
2019-03-26T02:08:38.258Z,100852.99
2019-03-26T02:11:05.580Z,100853.44
2019-03-26T02:13:32.923Z,100848.56
2019-03-26T02:16:00.267Z,100850.49
2019-03-26T02:18:27.580Z,100860.68
2019-03-26T02:20:54.927Z,100859.16
2019-03-26T02:23:22.292Z,100852.87
2019-03-26T02:25:49.548Z,100856.70
2019-03-26T02:28:16.873Z,100856.70
2019-03-26T02:30:44.200Z,100853.06
2019-03-26T02:33:11.527Z,100867.11
2019-03-26T02:35:38.869Z,100867.11
2019-03-26T02:38:06.614Z,100869.11
2019-03-26T02:40:33.949Z,100863.63
2019-03-26T02:43:01.178Z,100868.80
2019-03-26T02:45:28.515Z,100845.67
2019-03-26T02:47:55.844Z,100859.94
2019-03-26T02:50:23.207Z,100854.40
2019-03-26T02:52:51.774Z,100854.40
2019-03-26T02:55:19.088Z,100855.95
2019-03-26T02:57:46.456Z,100863.46
2019-03-26T03:00:13.999Z,100875.50
2019-03-26T03:02:41.361Z,100869.07
2019-03-26T03:05:08.787Z,100867.52
2019-03-26T03:07:36.090Z,100867.52
2019-03-26T03:10:04.016Z,100858.19
2019-03-26T03:12:33.230Z,100858.19
2019-03-26T03:15:00.674Z,100873.77
2019-03-26T03:17:28.009Z,100873.47
2019-03-26T03:19:55.361Z,100870.45
2019-03-26T03:22:23.197Z,100866.77
2019-03-26T03:24:50.457Z,100865.83
2019-03-26T03:27:17.815Z,100865.83
2019-03-26T03:29:45.145Z,100867.62
2019-03-26T03:32:12.469Z,100867.62
2019-03-26T03:34:39.912Z,100884.59
2019-03-26T03:37:07.236Z,100882.70
2019-03-26T03:39:34.488Z,100882.70
2019-03-26T03:42:01.811Z,100880.70
2019-03-26T03:44:29.180Z,100889.34
2019-03-26T03:46:57.221Z,100889.34
2019-03-26T03:49:26.942Z,100889.55
2019-03-26T03:51:56.887Z,100890.59
2019-03-26T03:54:24.431Z,100884.92
2019-03-26T03:56:53.580Z,100883.89
2019-03-26T03:59:21.715Z,100886.19
2019-03-26T04:01:48.949Z,100891.83
2019-03-26T04:04:16.199Z,100885.95
2019-03-26T04:06:43.532Z,100882.27
2019-03-26T04:09:10.743Z,100889.23
2019-03-26T04:11:38.123Z,100888.59
2019-03-26T04:14:05.448Z,100888.59
2019-03-26T04:16:32.791Z,100882.04
2019-03-26T04:18:59.998Z,100886.05
2019-03-26T04:21:27.335Z,100887.11
2019-03-26T04:23:54.551Z,100885.95
2019-03-26T04:26:21.793Z,100890.04
2019-03-26T04:28:48.971Z,100886.91
2019-03-26T04:31:16.193Z,100885.84
2019-03-26T04:33:43.529Z,100879.70
2019-03-26T04:36:24.707Z,100884.67
2019-03-26T04:38:39.871Z,100886.61
2019-03-26T04:41:07.202Z,100877.20
2019-03-26T04:43:34.521Z,100882.33
2019-03-26T04:46:01.867Z,100878.98
2019-03-26T04:48:29.081Z,100874.29
2019-03-26T04:50:56.370Z,100867.16
2019-03-26T04:53:23.588Z,100871.55
2019-03-26T04:55:50.980Z,100884.98
2019-03-26T04:58:18.205Z,100893.88
2019-03-26T05:00:45.455Z,100855.84
2019-03-26T05:03:12.776Z,100884.56
2019-03-26T05:05:40.108Z,100885.28
2019-03-26T05:08:07.434Z,100884.40
2019-03-26T05:10:34.652Z,100888.17
2019-03-26T05:13:01.998Z,100889.61
2019-03-26T05:15:29.311Z,100868.14
2019-03-26T05:17:56.989Z,100893.72
2019-03-26T05:20:24.360Z,100901.14
2019-03-26T05:22:51.605Z,100892.16
2019-03-26T05:25:19.046Z,100895.66
2019-03-26T05:27:46.283Z,100897.59
2019-03-26T05:30:15.403Z,100888.10
2019-03-26T05:32:42.735Z,100897.22
2019-03-26T05:35:09.952Z,100892.84
2019-03-26T05:37:37.371Z,100893.55
2019-03-26T05:40:06.732Z,100899.83
2019-03-26T05:42:33.964Z,100892.39
2019-03-26T05:45:01.292Z,100900.30
2019-03-26T05:47:28.509Z,100898.30
2019-03-26T05:49:55.723Z,100898.90
2019-03-26T05:52:23.057Z,100910.15
2019-03-26T05:54:50.272Z,100894.10
2019-03-26T05:57:17.616Z,100904.72
2019-03-26T05:59:44.836Z,100904.72
2019-03-26T06:02:15.202Z,100902.90
2019-03-26T06:04:41.173Z,100916.21
2019-03-26T06:07:08.508Z,100900.73
2019-03-26T06:09:35.811Z,100900.23
2019-03-26T06:12:03.164Z,100899.59
2019-03-26T06:14:30.483Z,100895.03
2019-03-26T06:16:57.699Z,100895.66
2019-03-26T06:19:25.038Z,100895.10
2019-03-26T06:21:52.267Z,100892.16
2019-03-26T06:24:19.661Z,100892.60
2019-03-26T06:26:46.900Z,100901.45
2019-03-26T06:29:14.243Z,100897.44
2019-03-26T06:31:41.472Z,100899.23
2019-03-26T06:34:10.510Z,100893.59
2019-03-26T06:36:37.934Z,100893.25
2019-03-26T06:39:07.026Z,100895.33
2019-03-26T06:41:34.323Z,100895.33
2019-03-26T06:44:01.646Z,100897.25
2019-03-26T06:46:28.946Z,100891.73
2019-03-26T06:48:56.187Z,100892.59
2019-03-26T06:51:23.501Z,100887.23
2019-03-26T06:53:50.899Z,100892.84
2019-03-26T06:56:18.106Z,100895.20
2019-03-26T06:58:45.341Z,100899.17
2019-03-26T07:01:12.675Z,100887.53
2019-03-26T07:03:40.015Z,100896.53
2019-03-26T07:06:07.331Z,100891.97
2019-03-26T07:08:35.071Z,100903.02
2019-03-26T07:11:02.380Z,100884.27
2019-03-26T07:13:29.618Z,100899.77
2019-03-26T07:15:56.847Z,100901.72
2019-03-26T07:18:24.166Z,100904.94
2019-03-26T07:20:51.524Z,100900.38
2019-03-26T07:23:18.868Z,100903.34
2019-03-26T07:25:46.186Z,100914.84
2019-03-26T07:28:13.515Z,100907.91
2019-03-26T07:30:43.612Z,100911.31
2019-03-26T07:33:11.004Z,100900.45
2019-03-26T07:35:38.361Z,100912.75
2019-03-26T07:38:05.688Z,100903.06
2019-03-26T07:40:33.026Z,100908.55
2019-03-26T07:43:00.343Z,100902.98
2019-03-26T07:45:27.672Z,100915.72
2019-03-26T07:47:55.044Z,100917.94
2019-03-26T07:50:22.372Z,100906.80
2019-03-26T07:52:49.717Z,100932.17
2019-03-26T07:55:17.045Z,100935.53
2019-03-26T07:57:44.259Z,100933.13
2019-03-26T08:00:12.033Z,100936.96
2019-03-26T08:02:39.418Z,100931.58
2019-03-26T08:05:07.813Z,100927.82
2019-03-26T08:07:35.127Z,100920.66
2019-03-26T08:10:02.479Z,100914.60
2019-03-26T08:12:32.615Z,100922.59
2019-03-26T08:14:58.874Z,100929.11
2019-03-26T08:17:26.190Z,100931.81
2019-03-26T08:19:53.524Z,100936.16
2019-03-26T08:22:20.740Z,100944.91
2019-03-26T08:24:48.057Z,100939.45
2019-03-26T08:27:15.395Z,100929.16
2019-03-26T08:29:42.616Z,100943.73
2019-03-26T08:32:10.038Z,100943.91
2019-03-26T08:34:37.361Z,100951.70
2019-03-26T08:37:04.697Z,100937.10
2019-03-26T08:39:32.000Z,100932.88
2019-03-26T08:41:59.331Z,100940.41
2019-03-26T08:44:26.529Z,100930.45
2019-03-26T08:46:53.755Z,100932.50
2019-03-26T08:49:21.127Z,100922.33
2019-03-26T08:51:48.343Z,100935.12
2019-03-26T08:54:15.588Z,100926.55
2019-03-26T08:56:42.920Z,100907.33
2019-03-26T08:59:10.264Z,100907.57
2019-03-26T09:01:37.485Z,100894.99
2019-03-26T09:04:04.693Z,100896.27
2019-03-26T09:06:32.020Z,100899.73
2019-03-26T09:08:59.326Z,100906.13
2019-03-26T09:11:26.647Z,100902.54
2019-03-26T09:13:53.851Z,100899.33
2019-03-26T09:16:21.272Z,100900.48
2019-03-26T09:18:48.464Z,100907.53
2019-03-26T09:21:15.815Z,100927.53
2019-03-26T09:23:43.121Z,100915.22
2019-03-26T09:26:10.346Z,100924.82
2019-03-26T09:28:37.575Z,100918.86
2019-03-26T09:31:04.934Z,100917.46
2019-03-26T09:33:32.276Z,100901.35
2019-03-26T09:35:59.687Z,100905.95
2019-03-26T09:38:38.414Z,100897.17
2019-03-26T09:40:56.166Z,100907.17
2019-03-26T09:43:23.379Z,100898.20
2019-03-26T09:45:50.751Z,100899.87
2019-03-26T09:48:18.109Z,100897.45
2019-03-26T09:50:45.508Z,100880.28
2019-03-26T09:53:13.007Z,100881.19
2019-03-26T09:55:40.383Z,100873.44
2019-03-26T09:58:07.712Z,100863.94
2019-03-26T10:00:35.122Z,100851.02
2019-03-26T10:03:02.493Z,100860.65
2019-03-26T10:05:29.793Z,100841.27
2019-03-26T10:07:57.112Z,100875.03
2019-03-26T10:10:24.423Z,100872.81
2019-03-26T10:12:51.757Z,100876.91
2019-03-26T10:15:19.055Z,100876.06
2019-03-26T10:17:46.396Z,100875.70
2019-03-26T10:20:13.982Z,100875.31
2019-03-26T10:22:41.328Z,100868.98
2019-03-26T10:25:10.907Z,100865.87
2019-03-26T10:27:38.287Z,100877.41
2019-03-26T10:30:06.750Z,100863.28
2019-03-26T10:32:34.505Z,100870.00
2019-03-26T10:35:01.816Z,100856.14
2019-03-26T10:37:29.143Z,100841.95
2019-03-26T10:39:56.444Z,100862.77
2019-03-26T10:42:23.779Z,100859.88
2019-03-26T10:44:51.025Z,100871.20
2019-03-26T10:47:18.358Z,100872.73
2019-03-26T10:49:45.573Z,100866.12
2019-03-26T10:52:12.904Z,100874.95
2019-03-26T10:54:40.127Z,100863.64
2019-03-26T10:57:07.447Z,100852.19
2019-03-26T10:59:34.745Z,100860.13
2019-03-26T11:02:02.119Z,100864.80
2019-03-26T11:04:29.389Z,100860.27
2019-03-26T11:06:56.847Z,100864.75
2019-03-26T11:09:27.074Z,100850.89
2019-03-26T11:11:53.274Z,100852.47
2019-03-26T11:14:20.582Z,100862.13
2019-03-26T11:16:47.927Z,100869.34
2019-03-26T11:19:15.117Z,100860.95
2019-03-26T11:21:42.479Z,100868.75
2019-03-26T11:24:09.790Z,100875.20
2019-03-26T11:26:37.087Z,100859.84
2019-03-26T11:29:04.414Z,100876.72
2019-03-26T11:31:31.725Z,100863.42
2019-03-26T11:33:59.096Z,100868.30
2019-03-26T11:36:26.404Z,100873.42
2019-03-26T11:38:53.734Z,100865.01
2019-03-26T11:41:21.139Z,100862.52
2019-03-26T11:43:48.466Z,100874.63
2019-03-26T11:46:15.819Z,100871.92
2019-03-26T11:48:43.143Z,100848.58
2019-03-26T11:51:10.449Z,100867.94
2019-03-26T11:53:37.786Z,100862.27
2019-03-26T11:56:05.086Z,100859.55
2019-03-26T11:58:32.416Z,100867.19
2019-03-26T12:00:59.840Z,100863.69
2019-03-26T12:03:27.179Z,100864.98
2019-03-26T12:05:54.485Z,100870.09
2019-03-26T12:08:21.810Z,100857.02
2019-03-26T12:10:49.119Z,100851.20
2019-03-26T12:13:16.357Z,100847.50
2019-03-26T12:15:43.656Z,100855.89
2019-03-26T12:18:10.996Z,100849.83
2019-03-26T12:20:38.321Z,100852.27
2019-03-26T12:23:05.647Z,100855.75
2019-03-26T12:25:33.089Z,100857.81
2019-03-26T12:28:00.478Z,100825.95
2019-03-26T12:30:32.359Z,100855.48
2019-03-26T12:32:59.907Z,100865.94
2019-03-26T12:35:28.102Z,100858.80
2019-03-26T12:37:55.457Z,100858.53
2019-03-26T12:40:22.796Z,100852.08
2019-03-26T12:42:50.006Z,100857.70
2019-03-26T12:45:17.339Z,100854.95
2019-03-26T12:47:44.649Z,100864.97
2019-03-26T12:50:12.111Z,100874.31
2019-03-26T12:52:39.428Z,100873.27
2019-03-26T12:55:06.870Z,100866.05
2019-03-26T12:57:34.228Z,100871.13
2019-03-26T13:00:01.557Z,100868.33
2019-03-26T13:02:28.854Z,100871.31
2019-03-26T13:04:56.251Z,100858.13
2019-03-26T13:07:23.549Z,100856.23
2019-03-26T13:09:50.879Z,100865.23
2019-03-26T13:12:18.083Z,100866.84
2019-03-26T13:14:45.720Z,100867.08
2019-03-26T13:17:13.191Z,100861.45
2019-03-26T13:19:40.441Z,100871.60
2019-03-26T13:22:07.753Z,100853.04
2019-03-26T13:24:35.076Z,100860.52
2019-03-26T13:27:22.009Z,100871.13
2019-03-26T13:29:49.218Z,100859.00
2019-03-26T13:32:16.415Z,100864.54
2019-03-26T13:34:43.678Z,100871.50
2019-03-26T13:37:10.981Z,100870.53
2019-03-26T13:39:38.503Z,100869.92
2019-03-26T13:42:05.809Z,100864.98
2019-03-26T13:44:33.193Z,100872.78
2019-03-26T13:47:00.486Z,100873.19
2019-03-26T13:49:27.698Z,100862.92
2019-03-26T13:51:55.001Z,100858.09
2019-03-26T13:54:22.339Z,100863.16
2019-03-26T13:56:49.548Z,100866.43
2019-03-26T13:59:16.851Z,100868.64
2019-03-26T14:01:44.215Z,100865.45
2019-03-26T14:04:11.545Z,100862.25
2019-03-26T14:12:06.647Z,100872.03
2019-03-26T14:14:33.976Z,100890.31
2019-03-26T14:17:01.210Z,100881.81
2019-03-26T14:19:28.534Z,100885.84
2019-03-26T14:21:55.845Z,100880.53
2019-03-26T14:24:23.170Z,100881.98
2019-03-26T14:26:51.047Z,100880.16
2019-03-26T14:29:19.621Z,100914.05
2019-03-26T14:31:52.980Z,100876.50
2019-03-26T14:34:20.458Z,100917.84
2019-03-26T14:36:47.912Z,100872.18
2019-03-26T14:39:15.730Z,100873.33
2019-03-26T14:41:43.077Z,100876.95
2019-03-26T14:44:10.395Z,100875.28
2019-03-26T14:46:37.799Z,100876.89
2019-03-26T14:49:05.108Z,100873.28
2019-03-26T14:51:34.399Z,100871.98
2019-03-26T14:54:02.385Z,100882.80
2019-03-26T14:56:30.587Z,100878.90
2019-03-26T14:58:57.822Z,100855.73
2019-03-26T15:01:25.164Z,100879.27
2019-03-26T15:03:52.481Z,100882.23
2019-03-26T15:06:19.905Z,100880.41
2019-03-26T15:08:47.216Z,100881.31
2019-03-26T15:11:14.495Z,100889.90
2019-03-26T15:13:41.739Z,100873.67
2019-03-26T15:16:09.083Z,100880.78
2019-03-26T15:18:36.308Z,100882.33
2019-03-26T15:21:03.771Z,100877.84
2019-03-26T15:23:31.085Z,100876.63
2019-03-26T15:25:58.423Z,100876.91
2019-03-26T15:28:25.770Z,100881.81
2019-03-26T15:30:53.438Z,100878.77
2019-03-26T15:33:20.772Z,100885.66
2019-03-26T15:35:48.098Z,100884.87
2019-03-26T15:38:15.359Z,100884.56
2019-03-26T15:40:45.884Z,100873.12
2019-03-26T15:43:13.259Z,100882.02
2019-03-26T15:45:40.581Z,100885.89
2019-03-26T15:48:07.968Z,100876.99
2019-03-26T15:50:40.158Z,100887.47
2019-03-26T15:53:07.824Z,100889.59
2019-03-26T15:55:35.265Z,100886.45
2019-03-26T15:58:02.587Z,100884.51
2019-03-26T16:00:31.200Z,100895.28
2019-03-26T16:02:58.843Z,100749.80
2019-03-26T16:05:28.859Z,100898.60
2019-03-26T16:08:27.628Z,100894.56
2019-03-26T16:10:59.144Z,100902.91
2019-03-26T16:13:26.494Z,100899.25
2019-03-26T16:15:56.469Z,100895.59
2019-03-26T16:18:26.637Z,100892.22
2019-03-26T16:20:59.057Z,100903.83
2019-03-26T16:23:28.141Z,100904.11
2019-03-26T16:25:55.510Z,100891.44
2019-03-26T16:28:31.954Z,100883.53
2019-03-26T16:30:59.652Z,100898.02
2019-03-26T16:33:31.500Z,100893.45
2019-03-26T16:36:36.093Z,100902.66
2019-03-26T16:39:12.810Z,100899.02
2019-03-26T16:41:51.711Z,100905.84
2019-03-26T16:44:28.337Z,100902.19
2019-03-26T16:46:55.676Z,100906.16
2019-03-26T16:49:23.534Z,100895.02
2019-03-26T16:52:01.838Z,100880.95
2019-03-26T16:54:31.174Z,100899.18
2019-03-26T16:57:07.820Z,100903.05
2019-03-26T16:59:40.916Z,100897.36
2019-03-26T17:02:10.664Z,100894.39
2019-03-26T17:04:38.002Z,100894.03
2019-03-26T17:07:05.372Z,100902.05
2019-03-26T17:09:44.559Z,100902.83
2019-03-26T17:12:13.649Z,100902.44
2019-03-26T17:14:43.879Z,100906.70
2019-03-26T17:17:11.189Z,100891.99
2019-03-26T17:19:38.536Z,100904.97
2019-03-26T17:22:06.973Z,100902.15
2019-03-26T17:24:34.407Z,100902.39
2019-03-26T17:27:01.898Z,100904.96
2019-03-26T17:29:29.259Z,100904.73
2019-03-26T17:31:56.608Z,100911.09
2019-03-26T17:34:26.835Z,100903.73
2019-03-26T17:36:54.178Z,100916.10
2019-03-26T17:42:17.083Z,100905.87
2019-03-26T17:44:37.499Z,100911.37
2019-03-26T17:47:04.729Z,100906.75
2019-03-26T17:49:32.058Z,100915.77
2019-03-26T17:51:59.389Z,100910.53
2019-03-26T17:54:26.722Z,100910.00
2019-03-26T17:56:54.047Z,100906.73
2019-03-26T17:59:21.757Z,100908.63
2019-03-26T18:01:48.975Z,100914.63
2019-03-26T18:04:16.320Z,100920.77
2019-03-26T18:06:43.636Z,100932.59
2019-03-26T18:09:10.949Z,100927.42
2019-03-26T18:11:38.279Z,100928.23
2019-03-26T18:14:05.507Z,100922.73
2019-03-26T18:16:33.187Z,100933.19
2019-03-26T18:19:00.395Z,100936.98
2019-03-26T18:21:27.731Z,100937.73
2019-03-26T18:23:55.289Z,100939.11
2019-03-26T18:26:22.513Z,100945.06
2019-03-26T18:28:49.811Z,100946.50
2019-03-26T18:31:17.137Z,100947.64
2019-03-26T18:33:44.694Z,100947.27
2019-03-26T18:36:11.919Z,100946.42
2019-03-26T18:38:39.126Z,100956.47
2019-03-26T18:41:06.421Z,100965.16
2019-03-26T18:43:33.663Z,100959.48
2019-03-26T18:46:00.961Z,100965.43
2019-03-26T18:48:28.184Z,100968.18
2019-03-26T18:50:55.526Z,100961.02
2019-03-26T18:53:22.788Z,100967.31
2019-03-26T18:55:50.004Z,100969.49
2019-03-26T18:58:17.337Z,100968.51
2019-03-26T19:00:44.641Z,100969.72
2019-03-26T19:03:14.282Z,100969.02
2019-03-26T19:05:41.490Z,100969.35
2019-03-26T19:08:08.917Z,100964.79
2019-03-26T19:10:36.259Z,100961.30
2019-03-26T19:13:03.916Z,100969.95
2019-03-26T19:15:31.229Z,100976.43
2019-03-26T19:17:58.556Z,100968.70
2019-03-26T19:20:25.873Z,100979.01
2019-03-26T19:22:53.105Z,100985.16
2019-03-26T19:25:20.415Z,100977.42
2019-03-26T19:27:47.738Z,100982.75
2019-03-26T19:30:15.103Z,100994.36
2019-03-26T19:32:42.323Z,100993.16
2019-03-26T19:35:09.621Z,101005.72
2019-03-26T19:37:36.947Z,101009.39
2019-03-26T19:40:04.480Z,101005.83
2019-03-26T19:42:31.803Z,101004.06
2019-03-26T19:44:59.032Z,101008.35
2019-03-26T19:47:26.363Z,101006.59
2019-03-26T19:49:53.678Z,101004.73
2019-03-26T19:52:20.902Z,101020.03
2019-03-26T19:54:48.040Z,101012.70
2019-03-26T19:57:17.121Z,101016.67
2019-03-26T19:59:44.319Z,101013.52
2019-03-26T20:02:11.646Z,101019.36
2019-03-26T20:04:38.874Z,101015.57
2019-03-26T20:07:06.192Z,101016.26
2019-03-26T20:09:33.419Z,101018.41
2019-03-26T20:12:00.630Z,101021.39
2019-03-26T20:17:23.678Z,101025.29
2019-03-26T20:19:53.504Z,101029.22
2019-03-26T20:22:20.840Z,101029.95
2019-03-26T20:24:48.853Z,101033.34
2019-03-26T20:27:16.192Z,101041.08
2019-03-26T20:29:43.504Z,101035.89
2019-03-26T20:32:10.721Z,101040.30
2019-03-26T20:34:38.054Z,101043.55
2019-03-26T20:37:05.366Z,101045.42
2019-03-26T20:39:32.699Z,101048.59
2019-03-26T20:42:02.447Z,101050.06
2019-03-26T20:44:30.230Z,101056.24
2019-03-26T20:46:57.530Z,101056.50
2019-03-26T20:49:26.887Z,101062.56
2019-03-26T20:51:54.179Z,101058.89
2019-03-26T20:54:21.441Z,101071.72
2019-03-26T20:56:48.750Z,101073.12
2019-03-26T20:59:16.469Z,101038.97
2019-03-26T21:01:45.564Z,101072.28
2019-03-26T21:04:12.810Z,101066.48
2019-03-26T21:06:40.026Z,101073.34
2019-03-26T21:09:07.910Z,101067.80
2019-03-26T21:11:35.115Z,101062.31
2019-03-26T21:14:04.603Z,101071.64
2019-03-26T21:16:31.823Z,101071.67
2019-03-26T21:19:00.217Z,101077.61
2019-03-26T21:21:27.551Z,101072.46
2019-03-26T21:23:54.882Z,101073.09
2019-03-26T21:26:22.187Z,101049.69
2019-03-26T21:28:49.792Z,101081.21
2019-03-26T21:31:17.000Z,101075.73
2019-03-26T21:33:44.323Z,101072.49
2019-03-26T21:36:11.692Z,101085.58
2019-03-26T21:38:38.995Z,101080.20
2019-03-26T21:41:06.288Z,101080.00
2019-03-26T21:43:33.622Z,101083.31
2019-03-26T21:46:00.922Z,101083.14
2019-03-26T21:48:28.266Z,101080.91
2019-03-26T21:50:55.623Z,101080.52
2019-03-26T21:53:22.846Z,101077.05
2019-03-26T21:55:50.182Z,101073.94
2019-03-26T21:58:17.499Z,101075.09
2019-03-26T22:00:44.852Z,101072.14
2019-03-26T22:03:12.152Z,101070.14
2019-03-26T22:05:39.488Z,101069.44
2019-03-26T22:08:06.796Z,101065.58
2019-03-26T22:10:34.459Z,101064.46
2019-03-26T22:13:01.789Z,101067.03
2019-03-26T22:15:29.123Z,101075.89
2019-03-26T22:17:56.350Z,101081.98
2019-03-26T22:20:23.699Z,101079.05
2019-03-26T22:22:51.024Z,101081.31
2019-03-26T22:25:18.340Z,101091.81
2019-03-26T22:27:45.662Z,101092.69
2019-03-26T22:30:13.591Z,101089.38
2019-03-26T22:32:40.912Z,101093.77
2019-03-26T22:35:09.263Z,101097.91
2019-03-26T22:37:36.609Z,101094.88
2019-03-26T22:40:04.847Z,101101.04
2019-03-26T22:42:32.152Z,101100.41
2019-03-26T22:44:59.500Z,101097.16
2019-03-26T22:47:26.803Z,101097.74
2019-03-26T22:49:57.206Z,101099.39
2019-03-26T22:52:23.330Z,101102.09
2019-03-26T22:54:50.679Z,101107.89
2019-03-26T22:57:18.002Z,101107.89
2019-03-26T22:59:45.233Z,101107.45
2019-03-26T23:02:12.560Z,101104.27
2019-03-26T23:04:39.897Z,101098.81
2019-03-26T23:07:07.230Z,101103.12
2019-03-26T23:09:34.538Z,101104.75
2019-03-26T23:12:02.806Z,101097.61
2019-03-26T23:14:30.111Z,101100.19
2019-03-26T23:16:57.437Z,101099.73
2019-03-26T23:19:24.743Z,101102.63
2019-03-26T23:21:53.543Z,101094.09
2019-03-26T23:24:20.777Z,101098.05
2019-03-26T23:26:47.992Z,101101.75
2019-03-26T23:29:15.342Z,101103.47
2019-03-26T23:31:42.664Z,101104.73
2019-03-26T23:34:09.914Z,101104.09
2019-03-26T23:36:37.222Z,101110.17
2019-03-26T23:39:05.644Z,101103.45
2019-03-26T23:41:32.979Z,101103.45
2019-03-26T23:44:00.303Z,101103.84
2019-03-26T23:46:27.636Z,101109.20
2019-03-26T23:48:54.845Z,101107.87
2019-03-26T23:51:22.080Z,101111.16
2019-03-26T23:53:49.401Z,101106.11
2019-03-26T23:56:16.743Z,101101.55
2019-03-26T23:58:43.957Z,101101.55
